createdAt,value
2019-04-29T00:00:59.861Z,3.50
2019-04-29T00:01:59.949Z,3.60
2019-04-29T00:03:00.045Z,3.60
2019-04-29T00:04:00.126Z,3.50
2019-04-29T00:05:00.217Z,3.20
2019-04-29T00:06:00.303Z,3.60
2019-04-29T00:07:00.394Z,3.90
2019-04-29T00:08:00.481Z,3.40
2019-04-29T00:09:00.571Z,3.30
2019-04-29T00:10:00.658Z,3.40
2019-04-29T00:11:00.743Z,3.20
2019-04-29T00:12:00.829Z,3.50
2019-04-29T00:13:00.921Z,3.40
2019-04-29T00:14:01.011Z,3.50
2019-04-29T00:15:01.099Z,3.20
2019-04-29T00:16:01.192Z,3.60
2019-04-29T00:17:01.271Z,3.70
2019-04-29T00:18:01.359Z,3.90
2019-04-29T00:19:01.510Z,3.40
2019-04-29T00:20:01.536Z,3.60
2019-04-29T00:21:01.623Z,3.70
2019-04-29T00:22:01.715Z,3.40
2019-04-29T00:23:01.805Z,3.50
2019-04-29T00:24:04.018Z,3.50
2019-04-29T00:25:01.982Z,3.70
2019-04-29T00:26:02.069Z,3.50
2019-04-29T00:27:02.154Z,3.60
2019-04-29T00:28:02.243Z,3.30
2019-04-29T00:29:02.330Z,3.30
2019-04-29T00:30:02.419Z,3.10
2019-04-29T00:31:02.509Z,3.20
2019-04-29T00:32:02.599Z,3.20
2019-04-29T00:33:02.683Z,3.30
2019-04-29T00:34:02.778Z,3.80
2019-04-29T00:35:02.865Z,3.30
2019-04-29T00:36:02.957Z,3.50
2019-04-29T00:37:03.048Z,3.70
2019-04-29T00:38:03.134Z,3.20
2019-04-29T00:39:03.222Z,3.60
2019-04-29T00:40:03.310Z,3.10
2019-04-29T00:41:03.400Z,3.30
2019-04-29T00:42:03.481Z,3.50
2019-04-29T00:43:03.580Z,3.50
2019-04-29T00:44:03.670Z,3.30
2019-04-29T00:45:03.779Z,3.30
2019-04-29T00:46:03.846Z,3.50
2019-04-29T00:47:03.934Z,3.20
2019-04-29T00:48:04.023Z,3.40
2019-04-29T00:49:04.111Z,3.30
2019-04-29T00:50:04.203Z,3.30
2019-04-29T00:51:04.289Z,3.30
2019-04-29T00:52:04.378Z,3.50
2019-04-29T00:53:04.532Z,3.40
2019-04-29T00:54:04.560Z,2.70
2019-04-29T00:55:04.647Z,3.10
2019-04-29T00:56:04.732Z,3.30
2019-04-29T00:57:04.820Z,3.60
2019-04-29T00:58:04.909Z,3.50
2019-04-29T00:59:04.995Z,3.20
2019-04-29T01:00:05.082Z,3.20
2019-04-29T01:01:05.171Z,3.30
2019-04-29T01:02:05.260Z,3.00
2019-04-29T01:03:05.349Z,3.00
2019-04-29T01:04:05.437Z,3.00
2019-04-29T01:05:05.526Z,3.30
2019-04-29T01:06:05.615Z,2.90
2019-04-29T01:07:05.705Z,3.50
2019-04-29T01:08:05.792Z,3.00
2019-04-29T01:09:05.880Z,3.30
2019-04-29T01:10:05.971Z,3.40
2019-04-29T01:11:06.063Z,3.10
2019-04-29T01:12:06.149Z,3.70
2019-04-29T01:13:06.241Z,3.40
2019-04-29T01:14:06.329Z,2.90
2019-04-29T01:15:06.413Z,3.30
2019-04-29T01:16:06.502Z,3.30
2019-04-29T01:17:06.588Z,3.50
2019-04-29T01:18:06.679Z,3.20
2019-04-29T01:19:06.775Z,3.10
2019-04-29T01:20:06.928Z,3.20
2019-04-29T01:21:06.943Z,3.50
2019-04-29T01:22:07.033Z,3.20
2019-04-29T01:23:07.122Z,3.10
2019-04-29T01:24:07.212Z,3.40
2019-04-29T01:25:07.317Z,3.30
2019-04-29T01:26:07.405Z,3.50
2019-04-29T01:27:07.492Z,3.40
2019-04-29T01:28:07.594Z,3.10
2019-04-29T01:29:07.666Z,3.40
2019-04-29T01:30:07.760Z,3.10
2019-04-29T01:31:07.840Z,3.50
2019-04-29T01:32:07.930Z,3.20
2019-04-29T01:33:08.019Z,3.40
2019-04-29T01:34:08.104Z,3.40
2019-04-29T01:35:08.194Z,3.30
2019-04-29T01:36:08.281Z,3.40
2019-04-29T01:37:08.369Z,3.20
2019-04-29T01:38:08.456Z,3.40
2019-04-29T01:39:08.541Z,3.10
2019-04-29T01:40:08.626Z,3.50
2019-04-29T01:41:08.715Z,3.50
2019-04-29T01:42:08.803Z,3.40
2019-04-29T01:43:08.894Z,3.20
2019-04-29T01:44:08.978Z,3.50
2019-04-29T01:45:09.060Z,3.80
2019-04-29T01:46:09.155Z,3.50
2019-04-29T01:47:09.240Z,3.40
2019-04-29T01:48:09.333Z,3.60
2019-04-29T01:49:09.414Z,3.50
2019-04-29T01:50:09.491Z,3.50
2019-04-29T01:51:09.576Z,3.30
2019-04-29T01:52:09.666Z,3.20
2019-04-29T01:53:09.758Z,3.50
2019-04-29T01:54:09.839Z,3.50
2019-04-29T01:55:09.925Z,3.40
2019-04-29T01:56:10.010Z,3.70
2019-04-29T01:57:10.096Z,3.00
2019-04-29T01:58:10.194Z,3.50
2019-04-29T01:59:10.277Z,3.20
2019-04-29T02:00:12.271Z,3.40
2019-04-29T02:01:10.463Z,3.50
2019-04-29T02:02:10.549Z,3.60
2019-04-29T02:03:10.636Z,3.40
2019-04-29T02:04:10.725Z,3.80
2019-04-29T02:05:10.819Z,3.50
2019-04-29T02:06:10.914Z,3.90
2019-04-29T02:07:10.994Z,3.60
2019-04-29T02:08:11.100Z,3.70
2019-04-29T02:09:11.190Z,3.40
2019-04-29T02:10:11.274Z,3.50
2019-04-29T02:11:11.361Z,3.70
2019-04-29T02:12:11.448Z,3.50
2019-04-29T02:13:11.535Z,3.10
2019-04-29T02:14:11.622Z,3.60
2019-04-29T02:15:11.710Z,3.30
2019-04-29T02:16:11.826Z,3.50
2019-04-29T02:17:11.883Z,3.50
2019-04-29T02:18:11.975Z,3.30
2019-04-29T02:19:12.061Z,3.70
2019-04-29T02:20:12.151Z,3.30
2019-04-29T02:21:12.239Z,3.30
2019-04-29T02:22:12.332Z,3.40
2019-04-29T02:23:12.423Z,3.50
2019-04-29T02:24:12.512Z,3.60
2019-04-29T02:25:12.597Z,3.40
2019-04-29T02:26:12.684Z,3.40
2019-04-29T02:27:12.776Z,3.40
2019-04-29T02:28:12.867Z,4.00
2019-04-29T02:29:12.956Z,3.30
2019-04-29T02:30:13.043Z,3.60
2019-04-29T02:31:13.127Z,3.60
2019-04-29T02:32:13.221Z,3.80
2019-04-29T02:33:13.309Z,3.40
2019-04-29T02:34:13.392Z,3.70
2019-04-29T02:35:13.482Z,3.20
2019-04-29T02:36:13.567Z,3.60
2019-04-29T02:37:13.655Z,3.30
2019-04-29T02:38:13.746Z,3.40
2019-04-29T02:39:13.854Z,3.40
2019-04-29T02:40:13.949Z,3.30
2019-04-29T02:41:14.036Z,3.50
2019-04-29T02:42:14.124Z,3.30
2019-04-29T02:43:14.210Z,4.00
2019-04-29T02:44:14.311Z,3.60
2019-04-29T02:45:14.423Z,3.70
2019-04-29T02:46:14.475Z,3.70
2019-04-29T02:47:14.563Z,3.50
2019-04-29T02:48:14.660Z,3.60
2019-04-29T02:49:14.747Z,3.70
2019-04-29T02:50:14.832Z,3.70
2019-04-29T02:51:14.922Z,3.30
2019-04-29T02:52:15.001Z,3.70
2019-04-29T02:53:15.094Z,3.50
2019-04-29T02:54:15.182Z,3.80
2019-04-29T02:55:15.262Z,3.30
2019-04-29T02:56:15.350Z,3.50
2019-04-29T02:57:15.439Z,3.50
2019-04-29T02:58:15.526Z,3.40
2019-04-29T02:59:15.616Z,3.40
2019-04-29T03:00:15.708Z,3.60
2019-04-29T03:01:15.792Z,3.80
2019-04-29T03:02:15.881Z,3.40
2019-04-29T03:03:15.968Z,3.10
2019-04-29T03:04:16.060Z,3.20
2019-04-29T03:05:16.160Z,3.20
2019-04-29T03:06:16.233Z,3.50
2019-04-29T03:07:16.312Z,3.40
2019-04-29T03:08:16.399Z,3.60
2019-04-29T03:09:16.490Z,3.30
2019-04-29T03:10:16.581Z,3.70
2019-04-29T03:11:16.666Z,3.60
2019-04-29T03:12:16.758Z,3.30
2019-04-29T03:13:16.849Z,3.60
2019-04-29T03:14:16.932Z,3.50
2019-04-29T03:15:17.021Z,3.50
2019-04-29T03:16:17.124Z,3.30
2019-04-29T03:17:18.942Z,3.50
2019-04-29T03:18:17.293Z,3.80
2019-04-29T03:19:17.377Z,3.40
2019-04-29T03:20:17.470Z,3.70
2019-04-29T03:21:17.557Z,3.60
2019-04-29T03:22:17.648Z,3.90
2019-04-29T03:23:17.736Z,4.20
2019-04-29T03:24:17.824Z,6.50
2019-04-29T03:25:17.913Z,5.20
2019-04-29T03:26:18.009Z,4.50
2019-04-29T03:27:18.090Z,3.80
2019-04-29T03:28:18.191Z,4.00
2019-04-29T03:29:18.265Z,3.70
2019-04-29T03:30:18.369Z,3.60
2019-04-29T03:31:18.446Z,3.60
2019-04-29T03:32:18.541Z,3.40
2019-04-29T03:33:18.623Z,3.50
2019-04-29T03:34:18.713Z,3.50
2019-04-29T03:35:18.802Z,3.90
2019-04-29T03:36:18.891Z,3.30
2019-04-29T03:37:18.979Z,3.80
2019-04-29T03:38:19.072Z,3.60
2019-04-29T03:39:19.153Z,3.20
2019-04-29T03:40:19.294Z,3.80
2019-04-29T03:41:19.333Z,3.50
2019-04-29T03:42:19.420Z,3.50
2019-04-29T03:43:19.507Z,3.50
2019-04-29T03:44:19.599Z,3.70
2019-04-29T03:45:19.685Z,3.40
2019-04-29T03:46:19.775Z,3.60
2019-04-29T03:47:19.869Z,4.20
2019-04-29T03:48:19.954Z,3.30
2019-04-29T03:49:20.042Z,3.60
2019-04-29T03:50:20.145Z,3.60
2019-04-29T03:51:20.259Z,3.70
2019-04-29T03:52:20.313Z,3.50
2019-04-29T03:53:20.396Z,3.90
2019-04-29T03:54:20.489Z,3.80
2019-04-29T03:55:38.374Z,4.30
2019-04-29T03:56:20.666Z,3.50
2019-04-29T03:57:20.757Z,3.50
2019-04-29T03:58:20.846Z,3.70
2019-04-29T03:59:20.931Z,3.20
2019-04-29T04:00:21.024Z,3.50
2019-04-29T04:01:21.112Z,3.50
2019-04-29T04:02:21.196Z,3.60
2019-04-29T04:03:21.283Z,3.40
2019-04-29T04:04:21.372Z,3.30
2019-04-29T04:05:21.463Z,3.60
2019-04-29T04:06:21.543Z,3.50
2019-04-29T04:07:21.644Z,3.70
2019-04-29T04:08:21.739Z,3.80
2019-04-29T04:09:21.816Z,3.70
2019-04-29T04:10:21.914Z,3.80
2019-04-29T04:11:22.003Z,3.70
2019-04-29T04:12:22.092Z,3.50
2019-04-29T04:13:22.180Z,3.50
2019-04-29T04:14:22.273Z,4.00
2019-04-29T04:15:22.358Z,3.40
2019-04-29T04:16:22.448Z,3.40
2019-04-29T04:17:22.539Z,3.80
2019-04-29T04:18:22.636Z,3.50
2019-04-29T04:19:22.724Z,3.70
2019-04-29T04:20:22.813Z,3.50
2019-04-29T04:21:22.913Z,3.30
2019-04-29T04:22:22.999Z,3.20
2019-04-29T04:23:23.112Z,3.60
2019-04-29T04:24:23.210Z,3.40
2019-04-29T04:25:23.275Z,3.50
2019-04-29T04:26:23.351Z,3.40
2019-04-29T04:27:23.439Z,3.20
2019-04-29T04:28:23.527Z,3.30
2019-04-29T04:29:23.618Z,3.60
2019-04-29T04:30:23.705Z,3.60
2019-04-29T04:31:23.793Z,3.40
2019-04-29T04:32:23.888Z,3.60
2019-04-29T04:33:23.978Z,3.50
2019-04-29T04:34:24.057Z,3.50
2019-04-29T04:35:24.145Z,3.70
2019-04-29T04:36:24.232Z,3.60
2019-04-29T04:37:24.324Z,3.70
2019-04-29T04:38:24.422Z,3.70
2019-04-29T04:39:24.502Z,4.00
2019-04-29T04:40:24.592Z,3.90
2019-04-29T04:41:24.680Z,3.70
2019-04-29T04:42:24.768Z,4.00
2019-04-29T04:43:24.983Z,4.20
2019-04-29T04:44:25.000Z,3.90
2019-04-29T04:45:25.088Z,4.00
2019-04-29T04:46:25.179Z,4.00
2019-04-29T04:47:25.268Z,3.80
2019-04-29T04:48:25.351Z,3.80
2019-04-29T04:49:25.446Z,4.30
2019-04-29T04:50:25.542Z,3.80
2019-04-29T04:51:25.623Z,3.60
2019-04-29T04:52:25.714Z,3.60
2019-04-29T04:53:25.805Z,3.70
2019-04-29T04:54:25.894Z,3.40
2019-04-29T04:55:25.982Z,3.30
2019-04-29T04:56:26.070Z,3.80
2019-04-29T04:57:26.161Z,3.80
2019-04-29T04:58:26.251Z,3.80
2019-04-29T04:59:26.338Z,4.00
2019-04-29T05:00:26.427Z,4.10
2019-04-29T05:01:26.519Z,3.60
2019-04-29T05:02:26.725Z,3.60
2019-04-29T05:03:26.704Z,4.00
2019-04-29T05:04:26.794Z,3.50
2019-04-29T05:05:26.884Z,3.60
2019-04-29T05:06:26.975Z,4.20
2019-04-29T05:07:27.065Z,3.90
2019-04-29T05:08:27.153Z,4.10
2019-04-29T05:09:27.242Z,4.10
2019-04-29T05:10:27.332Z,4.00
2019-04-29T05:11:27.422Z,4.10
2019-04-29T05:12:27.515Z,4.00
2019-04-29T05:13:28.697Z,4.50
2019-04-29T05:14:27.692Z,4.60
2019-04-29T05:15:27.777Z,4.70
2019-04-29T05:16:27.873Z,5.20
2019-04-29T05:17:27.971Z,4.80
2019-04-29T05:18:28.062Z,4.40
2019-04-29T05:19:28.134Z,4.80
2019-04-29T05:20:28.222Z,4.90
2019-04-29T05:21:28.302Z,4.70
2019-04-29T05:22:28.407Z,4.30
2019-04-29T05:23:28.494Z,4.40
2019-04-29T05:24:28.590Z,4.40
2019-04-29T05:25:28.677Z,4.40
2019-04-29T05:26:28.767Z,4.60
2019-04-29T05:27:28.859Z,4.50
2019-04-29T05:28:28.947Z,4.40
2019-04-29T05:29:29.040Z,4.00
2019-04-29T05:30:29.132Z,4.30
2019-04-29T05:31:29.220Z,4.30
2019-04-29T05:32:29.310Z,4.30
2019-04-29T05:33:29.399Z,3.90
2019-04-29T05:34:29.488Z,4.50
2019-04-29T05:35:29.580Z,4.50
2019-04-29T05:36:29.673Z,4.00
2019-04-29T05:37:29.765Z,4.20
2019-04-29T05:38:29.856Z,4.00
2019-04-29T05:39:29.947Z,3.80
2019-04-29T05:40:30.032Z,4.30
2019-04-29T05:41:34.660Z,3.90
2019-04-29T05:42:30.208Z,4.30
2019-04-29T05:43:32.011Z,3.90
2019-04-29T05:44:30.391Z,4.10
2019-04-29T05:45:30.486Z,4.40
2019-04-29T05:46:30.571Z,4.10
2019-04-29T05:47:30.666Z,4.10
2019-04-29T05:48:32.079Z,3.90
2019-04-29T05:49:30.846Z,4.10
2019-04-29T05:50:30.950Z,4.20
2019-04-29T05:51:31.023Z,4.30
2019-04-29T05:52:34.799Z,4.10
2019-04-29T05:53:31.205Z,4.10
2019-04-29T05:54:31.714Z,4.00
2019-04-29T05:55:31.387Z,4.50
2019-04-29T05:56:31.477Z,4.60
2019-04-29T05:57:31.571Z,4.20
2019-04-29T05:58:32.953Z,4.60
2019-04-29T05:59:31.757Z,4.30
2019-04-29T06:00:31.848Z,4.90
2019-04-29T06:01:31.939Z,5.10
2019-04-29T06:02:35.145Z,4.20
2019-04-29T06:03:33.577Z,4.30
2019-04-29T06:04:32.206Z,4.10
2019-04-29T06:05:32.299Z,4.40
2019-04-29T06:06:32.386Z,4.10
2019-04-29T06:07:32.475Z,3.90
2019-04-29T06:08:34.600Z,4.20
2019-04-29T06:09:32.659Z,3.70
2019-04-29T06:10:32.748Z,4.10
2019-04-29T06:11:32.848Z,4.10
2019-04-29T06:12:32.940Z,4.20
2019-04-29T06:13:33.032Z,4.30
2019-04-29T06:14:33.120Z,4.30
2019-04-29T06:15:33.215Z,4.80
2019-04-29T06:16:33.305Z,4.60
2019-04-29T06:17:33.394Z,4.30
2019-04-29T06:18:33.486Z,4.80
2019-04-29T06:19:35.249Z,4.60
2019-04-29T06:20:33.666Z,4.30
2019-04-29T06:21:33.756Z,4.60
2019-04-29T06:22:33.847Z,4.90
2019-04-29T06:23:33.944Z,4.00
2019-04-29T06:24:36.899Z,4.50
2019-04-29T06:25:34.119Z,4.40
2019-04-29T06:26:34.218Z,4.20
2019-04-29T06:27:34.298Z,4.30
2019-04-29T06:28:34.392Z,4.00
2019-04-29T06:29:34.478Z,3.90
2019-04-29T06:30:36.978Z,4.00
2019-04-29T06:31:34.682Z,4.20
2019-04-29T06:32:34.772Z,4.30
2019-04-29T06:33:34.865Z,4.10
2019-04-29T06:34:35.547Z,3.90
2019-04-29T06:35:35.052Z,4.30
2019-04-29T06:36:35.131Z,3.90
2019-04-29T06:37:35.221Z,3.90
2019-04-29T06:38:35.316Z,3.80
2019-04-29T06:39:35.406Z,4.00
2019-04-29T06:40:36.893Z,4.20
2019-04-29T06:41:35.595Z,4.00
2019-04-29T06:42:35.688Z,4.20
2019-04-29T06:43:35.778Z,4.10
2019-04-29T06:44:35.869Z,3.90
2019-04-29T06:45:35.961Z,4.00
2019-04-29T06:46:36.056Z,3.90
2019-04-29T06:47:36.143Z,4.40
2019-04-29T06:48:36.237Z,4.40
2019-04-29T06:49:36.325Z,4.60
2019-04-29T06:50:36.426Z,4.50
2019-04-29T06:51:36.517Z,4.50
2019-04-29T06:52:36.609Z,4.10
2019-04-29T06:53:36.706Z,4.80
2019-04-29T06:54:36.793Z,4.90
2019-04-29T06:55:36.884Z,4.60
2019-04-29T06:56:36.982Z,4.30
2019-04-29T06:57:37.069Z,4.40
2019-04-29T06:58:38.478Z,4.20
2019-04-29T06:59:37.253Z,4.10
2019-04-29T07:00:37.347Z,4.00
2019-04-29T07:01:38.598Z,4.80
2019-04-29T07:02:37.555Z,4.20
2019-04-29T07:03:37.642Z,4.70
2019-04-29T07:04:39.503Z,4.70
2019-04-29T07:05:37.831Z,4.60
2019-04-29T07:06:37.919Z,4.50
2019-04-29T07:07:38.012Z,4.70
2019-04-29T07:08:38.104Z,5.40
2019-04-29T07:09:38.255Z,3.90
2019-04-29T07:10:38.286Z,4.40
2019-04-29T07:11:38.552Z,4.50
2019-04-29T07:12:38.491Z,4.20
2019-04-29T07:13:38.551Z,4.60
2019-04-29T07:14:38.850Z,4.30
2019-04-29T07:15:38.760Z,4.50
2019-04-29T07:16:38.840Z,4.70
2019-04-29T07:17:41.358Z,4.60
2019-04-29T07:18:39.831Z,4.60
2019-04-29T07:19:39.119Z,4.30
2019-04-29T07:20:39.211Z,4.80
2019-04-29T07:21:41.855Z,4.70
2019-04-29T07:22:39.396Z,5.00
2019-04-29T07:23:39.498Z,4.70
2019-04-29T07:24:39.582Z,4.50
2019-04-29T07:25:39.674Z,4.90
2019-04-29T07:26:39.769Z,4.40
2019-04-29T07:27:43.568Z,4.80
2019-04-29T07:28:39.959Z,4.60
2019-04-29T07:29:40.049Z,4.90
2019-04-29T07:31:00.383Z,4.30
2019-04-29T07:31:40.236Z,4.80
2019-04-29T07:32:42.158Z,4.50
2019-04-29T07:33:40.431Z,5.00
2019-04-29T07:34:40.518Z,4.60
2019-04-29T07:35:42.930Z,4.70
2019-04-29T07:36:40.703Z,4.80
2019-04-29T07:37:40.797Z,4.50
2019-04-29T07:38:41.971Z,5.00
2019-04-29T07:39:40.982Z,5.10
2019-04-29T07:40:43.317Z,4.80
2019-04-29T07:41:41.164Z,4.50
2019-04-29T07:42:41.261Z,4.90
2019-04-29T07:43:43.035Z,4.70
2019-04-29T07:44:44.233Z,4.90
2019-04-29T07:45:44.329Z,5.40
2019-04-29T07:46:56.125Z,5.10
2019-04-29T07:47:55.592Z,5.50
2019-04-29T07:48:43.676Z,5.20
2019-04-29T07:49:41.918Z,5.10
2019-04-29T07:50:42.010Z,5.00
2019-04-29T07:51:42.103Z,5.50
2019-04-29T07:52:45.734Z,5.20
2019-04-29T07:53:45.528Z,5.00
2019-04-29T07:54:42.374Z,5.20
2019-04-29T07:55:42.467Z,5.30
2019-04-29T07:56:43.646Z,5.70
2019-04-29T07:57:42.652Z,4.90
2019-04-29T07:58:42.746Z,5.30
2019-04-29T07:59:42.839Z,5.50
2019-04-29T08:00:44.564Z,5.70
2019-04-29T08:01:43.055Z,5.50
2019-04-29T08:02:43.143Z,5.20
2019-04-29T08:03:43.238Z,5.00
2019-04-29T08:04:43.334Z,6.00
2019-04-29T08:05:43.424Z,5.70
2019-04-29T08:06:44.901Z,5.40
2019-04-29T08:07:43.607Z,5.70
2019-04-29T08:08:54.247Z,5.60
2019-04-29T08:09:44.189Z,5.50
2019-04-29T08:10:53.998Z,5.70
2019-04-29T08:11:43.978Z,5.60
2019-04-29T08:12:44.068Z,5.80
2019-04-29T08:13:44.164Z,5.70
2019-04-29T08:14:44.248Z,6.50
2019-04-29T08:15:44.344Z,5.80
2019-04-29T08:16:44.438Z,6.20
2019-04-29T08:17:44.532Z,6.70
2019-04-29T08:18:44.627Z,6.70
2019-04-29T08:19:44.720Z,6.40
2019-04-29T08:20:44.813Z,6.70
2019-04-29T08:21:45.476Z,7.00
2019-04-29T08:22:45.001Z,7.70
2019-04-29T08:23:45.093Z,8.20
2019-04-29T08:24:45.990Z,7.40
2019-04-29T08:25:45.281Z,7.80
2019-04-29T08:26:47.728Z,7.60
2019-04-29T08:27:45.466Z,9.30
2019-04-29T08:28:45.562Z,9.70
2019-04-29T08:29:45.661Z,10.80
2019-04-29T08:30:46.097Z,9.50
2019-04-29T08:31:45.859Z,10.00
2019-04-29T08:32:45.945Z,9.50
2019-04-29T08:33:46.666Z,9.80
2019-04-29T08:34:46.131Z,10.10
2019-04-29T08:35:46.911Z,10.10
2019-04-29T08:36:46.321Z,9.90
2019-04-29T08:37:46.413Z,9.90
2019-04-29T08:38:46.517Z,9.70
2019-04-29T08:40:03.459Z,8.70
2019-04-29T08:40:50.155Z,9.40
2019-04-29T08:41:46.793Z,9.30
2019-04-29T08:42:47.095Z,9.30
2019-04-29T08:43:46.979Z,9.30
2019-04-29T08:44:47.073Z,10.10
2019-04-29T08:45:47.167Z,10.30
2019-04-29T08:46:51.811Z,9.20
2019-04-29T08:47:47.355Z,9.80
2019-04-29T08:48:47.449Z,9.90
2019-04-29T08:49:47.543Z,9.70
2019-04-29T08:50:47.642Z,9.40
2019-04-29T08:51:47.735Z,9.20
2019-04-29T08:52:47.828Z,9.20
2019-04-29T08:53:47.925Z,9.30
2019-04-29T08:54:50.734Z,9.40
2019-04-29T08:55:48.111Z,9.30
2019-04-29T08:57:02.174Z,9.20
2019-04-29T08:57:48.303Z,9.40
2019-04-29T08:58:49.214Z,9.20
2019-04-29T08:59:48.603Z,9.40
2019-04-29T09:00:51.407Z,9.80
2019-04-29T09:01:48.675Z,9.90
2019-04-29T09:02:49.382Z,9.50
2019-04-29T09:03:48.866Z,9.00
2019-04-29T09:04:53.635Z,9.20
2019-04-29T09:06:03.983Z,9.80
2019-04-29T09:06:49.170Z,9.10
2019-04-29T09:07:52.606Z,9.20
2019-04-29T09:08:55.341Z,9.50
2019-04-29T09:09:49.453Z,9.30
2019-04-29T09:10:49.551Z,9.10
2019-04-29T09:11:49.649Z,10.30
2019-04-29T09:12:49.730Z,10.00
2019-04-29T09:13:49.833Z,10.10
2019-04-29T09:14:49.927Z,9.40
2019-04-29T09:15:50.024Z,9.10
2019-04-29T09:16:50.120Z,9.80
2019-04-29T09:17:50.216Z,9.30
2019-04-29T09:18:50.310Z,10.10
2019-04-29T09:19:50.405Z,9.20
2019-04-29T09:20:50.499Z,9.10
2019-04-29T09:21:50.593Z,9.60
2019-04-29T09:22:50.687Z,9.50
2019-04-29T09:23:50.783Z,9.50
2019-04-29T09:24:50.877Z,9.00
2019-04-29T09:26:01.970Z,8.80
2019-04-29T09:26:51.070Z,9.40
2019-04-29T09:27:51.169Z,9.40
2019-04-29T09:28:51.257Z,10.20
2019-04-29T09:29:54.211Z,9.30
2019-04-29T09:30:51.453Z,9.70
2019-04-29T09:31:51.544Z,9.70
2019-04-29T09:32:51.640Z,9.70
2019-04-29T09:33:59.697Z,9.10
2019-04-29T09:34:55.512Z,9.60
2019-04-29T09:35:51.919Z,9.20
2019-04-29T09:36:52.018Z,8.90
2019-04-29T09:37:53.777Z,9.10
2019-04-29T09:38:52.206Z,9.50
2019-04-29T09:39:52.300Z,9.90
2019-04-29T09:40:54.692Z,9.60
2019-04-29T09:41:52.493Z,9.30
2019-04-29T09:42:52.588Z,9.70
2019-04-29T09:43:52.686Z,9.60
2019-04-29T09:44:52.783Z,9.70
2019-04-29T09:45:53.908Z,9.50
2019-04-29T09:46:52.977Z,8.90
2019-04-29T09:47:53.065Z,9.20
2019-04-29T09:48:53.161Z,9.80
2019-04-29T09:49:53.258Z,9.90
2019-04-29T09:50:53.354Z,9.60
2019-04-29T09:51:53.455Z,9.50
2019-04-29T09:52:53.546Z,9.50
2019-04-29T09:53:53.642Z,9.50
2019-04-29T09:54:53.737Z,9.50
2019-04-29T09:55:53.832Z,9.40
2019-04-29T09:56:53.932Z,9.40
2019-04-29T09:57:54.031Z,8.50
2019-04-29T09:58:54.123Z,9.20
2019-04-29T09:59:54.219Z,9.20
2019-04-29T10:00:54.316Z,9.50
2019-04-29T10:01:54.964Z,8.80
2019-04-29T10:02:54.510Z,9.60
2019-04-29T10:03:54.605Z,9.30
2019-04-29T10:04:56.638Z,9.30
2019-04-29T10:05:54.799Z,9.20
2019-04-29T10:06:54.946Z,9.00
2019-04-29T10:07:54.987Z,9.10
2019-04-29T10:08:55.087Z,9.20
2019-04-29T10:09:57.245Z,9.40
2019-04-29T10:10:55.279Z,9.70
2019-04-29T10:11:55.374Z,9.20
2019-04-29T10:12:55.478Z,9.80
2019-04-29T10:13:55.579Z,9.30
2019-04-29T10:14:55.683Z,9.80
2019-04-29T10:16:00.116Z,9.60
2019-04-29T10:16:55.879Z,9.80
2019-04-29T10:17:56.173Z,9.90
2019-04-29T10:18:56.081Z,9.50
2019-04-29T10:19:56.176Z,9.70
2019-04-29T10:20:56.277Z,9.80
2019-04-29T10:21:56.375Z,10.40
2019-04-29T10:22:56.477Z,9.50
2019-04-29T10:23:56.579Z,10.10
2019-04-29T10:24:56.678Z,9.50
2019-04-29T10:25:56.781Z,9.50
2019-04-29T10:26:56.871Z,10.00
2019-04-29T10:27:56.972Z,9.30
2019-04-29T10:28:57.090Z,9.60
2019-04-29T10:29:57.256Z,10.10
2019-04-29T10:30:57.288Z,9.40
2019-04-29T10:31:57.386Z,10.00
2019-04-29T10:32:57.483Z,9.90
2019-04-29T10:33:57.584Z,9.70
2019-04-29T10:34:57.679Z,10.30
2019-04-29T10:35:57.778Z,10.40
2019-04-29T10:36:57.875Z,10.50
2019-04-29T10:37:57.961Z,10.00
2019-04-29T10:38:58.069Z,10.40
2019-04-29T10:40:10.496Z,10.60
2019-04-29T10:41:00.574Z,10.40
2019-04-29T10:41:58.361Z,10.40
2019-04-29T10:42:58.452Z,10.00
2019-04-29T10:43:58.547Z,9.90
2019-04-29T10:44:58.641Z,9.10
2019-04-29T10:45:58.725Z,9.50
2019-04-29T10:46:58.838Z,10.10
2019-04-29T10:47:58.928Z,9.80
2019-04-29T10:49:03.472Z,9.70
2019-04-29T10:49:59.117Z,9.50
2019-04-29T10:50:59.219Z,10.30
2019-04-29T10:52:02.993Z,10.20
2019-04-29T10:52:59.406Z,9.80
2019-04-29T10:53:59.503Z,10.00
2019-04-29T10:54:59.602Z,9.90
2019-04-29T10:56:00.944Z,10.20
2019-04-29T10:56:59.795Z,10.20
2019-04-29T10:57:59.888Z,9.80
2019-04-29T10:58:59.989Z,9.90
2019-04-29T11:00:01.128Z,9.50
2019-04-29T11:01:00.182Z,10.30
2019-04-29T11:02:01.624Z,10.40
2019-04-29T11:03:00.372Z,9.80
2019-04-29T11:04:02.501Z,9.60
2019-04-29T11:05:02.617Z,9.60
2019-04-29T11:06:01.934Z,9.90
2019-04-29T11:07:13.421Z,9.20
2019-04-29T11:08:02.549Z,9.00
2019-04-29T11:09:00.946Z,8.90
2019-04-29T11:10:01.037Z,8.80
2019-04-29T11:11:02.639Z,8.70
2019-04-29T11:12:01.228Z,8.90
2019-04-29T11:13:01.326Z,9.30
2019-04-29T11:14:01.903Z,8.90
2019-04-29T11:15:01.934Z,9.10
2019-04-29T11:16:01.612Z,9.00
2019-04-29T11:17:01.700Z,8.40
2019-04-29T11:18:03.643Z,9.00
2019-04-29T11:19:05.262Z,8.70
2019-04-29T11:20:01.971Z,8.90
2019-04-29T11:21:02.061Z,7.90
2019-04-29T11:22:03.200Z,7.00
2019-04-29T11:23:02.255Z,6.60
2019-04-29T11:24:02.354Z,7.10
2019-04-29T11:25:02.461Z,6.60
2019-04-29T11:26:02.555Z,6.80
2019-04-29T11:27:11.627Z,6.20
2019-04-29T11:28:02.745Z,6.60
2019-04-29T11:29:05.486Z,6.70
2019-04-29T11:30:04.862Z,6.70
2019-04-29T11:31:03.035Z,6.80
2019-04-29T11:32:03.153Z,6.60
2019-04-29T11:33:04.638Z,7.10
2019-04-29T11:34:05.462Z,6.80
2019-04-29T11:35:03.410Z,6.60
2019-04-29T11:36:05.510Z,6.90
2019-04-29T11:37:03.625Z,6.60
2019-04-29T11:38:03.701Z,7.10
2019-04-29T11:39:03.800Z,6.50
2019-04-29T11:40:03.889Z,6.90
2019-04-29T11:41:03.989Z,7.30
2019-04-29T11:42:04.088Z,7.30
2019-04-29T11:43:04.183Z,6.60
2019-04-29T11:44:04.276Z,6.70
2019-04-29T11:45:04.373Z,7.40
2019-04-29T11:46:04.469Z,7.50
2019-04-29T11:47:04.565Z,7.10
2019-04-29T11:48:04.664Z,7.10
2019-04-29T11:49:04.760Z,7.20
2019-04-29T11:50:07.610Z,7.50
2019-04-29T11:51:04.945Z,7.60
2019-04-29T11:52:09.712Z,7.10
2019-04-29T11:53:05.118Z,7.50
2019-04-29T11:54:08.195Z,7.90
2019-04-29T11:55:05.330Z,7.40
2019-04-29T11:56:05.426Z,7.80
2019-04-29T11:57:05.517Z,7.00
2019-04-29T11:58:05.624Z,7.20
2019-04-29T11:59:05.741Z,7.50
2019-04-29T12:00:05.816Z,6.50
2019-04-29T12:01:08.447Z,6.70
2019-04-29T12:02:06.005Z,6.40
2019-04-29T12:03:06.093Z,6.70
2019-04-29T12:04:06.197Z,6.30
2019-04-29T12:05:08.657Z,6.80
2019-04-29T12:06:06.385Z,6.70
2019-04-29T12:07:06.478Z,6.60
2019-04-29T12:08:11.723Z,7.10
2019-04-29T12:09:06.871Z,7.00
2019-04-29T12:10:07.852Z,6.30
2019-04-29T12:11:07.594Z,6.80
2019-04-29T12:12:07.872Z,6.30
2019-04-29T12:13:07.064Z,6.10
2019-04-29T12:14:07.128Z,6.30
2019-04-29T12:15:09.033Z,6.20
2019-04-29T12:16:07.323Z,6.40
2019-04-29T12:17:07.418Z,6.50
2019-04-29T12:18:07.510Z,7.00
2019-04-29T12:19:07.606Z,6.50
2019-04-29T12:20:07.693Z,6.20
2019-04-29T12:21:07.803Z,6.30
2019-04-29T12:22:09.078Z,6.60
2019-04-29T12:23:11.094Z,6.30
2019-04-29T12:24:08.076Z,6.70
2019-04-29T12:25:08.226Z,6.90
2019-04-29T12:26:08.262Z,6.10
2019-04-29T12:27:08.360Z,6.30
2019-04-29T12:28:18.821Z,6.50
2019-04-29T12:29:08.545Z,6.80
2019-04-29T12:30:08.639Z,6.50
2019-04-29T12:31:10.296Z,7.30
2019-04-29T12:32:08.822Z,6.30
2019-04-29T12:33:08.916Z,6.60
2019-04-29T12:34:09.010Z,6.80
2019-04-29T12:35:09.103Z,7.50
2019-04-29T12:36:09.201Z,6.40
2019-04-29T12:37:09.306Z,6.30
2019-04-29T12:38:11.253Z,7.20
2019-04-29T12:39:09.479Z,7.40
2019-04-29T12:40:09.822Z,7.60
2019-04-29T12:41:20.157Z,7.50
2019-04-29T12:42:09.768Z,7.50
2019-04-29T12:43:11.363Z,8.00
2019-04-29T12:44:09.952Z,8.20
2019-04-29T12:45:19.343Z,7.90
2019-04-29T12:46:10.496Z,8.30
2019-04-29T12:47:10.226Z,8.20
2019-04-29T12:48:23.439Z,8.20
2019-04-29T12:49:13.521Z,8.10
2019-04-29T12:50:10.534Z,8.20
2019-04-29T12:51:10.631Z,8.90
2019-04-29T12:52:10.725Z,8.60
2019-04-29T12:53:10.830Z,8.40
2019-04-29T12:54:10.916Z,9.10
2019-04-29T12:55:20.062Z,9.10
2019-04-29T12:56:11.603Z,8.90
2019-04-29T12:57:11.211Z,8.90
2019-04-29T12:58:11.311Z,9.50
2019-04-29T12:59:11.410Z,9.10
2019-04-29T13:00:11.497Z,8.40
2019-04-29T13:01:11.587Z,9.30
2019-04-29T13:02:14.098Z,9.60
2019-04-29T13:03:11.782Z,9.90
2019-04-29T13:04:14.890Z,10.00
2019-04-29T13:05:11.984Z,9.50
2019-04-29T13:06:12.083Z,9.80
2019-04-29T13:07:12.181Z,9.00
2019-04-29T13:08:12.277Z,9.50
2019-04-29T13:09:17.880Z,9.90
2019-04-29T13:10:13.768Z,10.00
2019-04-29T13:11:14.774Z,9.60
2019-04-29T13:12:19.721Z,9.50
2019-04-29T13:13:15.800Z,10.30
2019-04-29T13:14:12.854Z,10.10
2019-04-29T13:15:13.848Z,10.10
2019-04-29T13:16:13.060Z,10.30
2019-04-29T13:17:14.850Z,9.80
2019-04-29T13:18:16.889Z,10.70
2019-04-29T13:19:17.075Z,10.50